Time,TemperatureF,DewpointF,PressureIn,WindDirection,WindDirectionDegrees,WindSpeedMPH,WindSpeedGustMPH,Humidity,HourlyPrecipIn,Conditions,Clouds,dailyrainin,SoftwareType,DateUTC
2013-10-25 00:10:00,43.1,28.0,29.90,WNW,292,6.0,11.0,55,0.00,,,0.00,weatherlink.com 1.10,2013-10-25 04:10:00,
2013-10-25 00:25:00,42.7,27.0,29.90,NW,314,3.0,11.0,55,0.00,,,0.00,weatherlink.com 1.10,2013-10-25 04:25:00,
2013-10-25 00:40:00,42.7,28.0,29.91,WNW,291,5.0,8.0,56,0.00,,,0.00,weatherlink.com 1.10,2013-10-25 04:40:00,
2013-10-25 00:55:00,42.8,28.0,29.91,NW,319,6.0,11.0,56,0.00,,,0.00,weatherlink.com 1.10,2013-10-25 04:55:00,
2013-10-25 01:10:00,42.5,28.0,29.92,WNW,292,7.0,15.0,56,0.00,,,0.00,weatherlink.com 1.10,2013-10-25 05:10:00,
2013-10-25 01:25:00,42.4,28.0,29.92,WNW,291,12.0,13.0,57,0.00,,,0.00,weatherlink.com 1.10,2013-10-25 05:25:00,
2013-10-25 01:40:00,42.4,28.0,29.92,WNW,295,10.0,11.0,58,0.00,,,0.00,weatherlink.com 1.10,2013-10-25 05:40:00,
2013-10-25 01:55:00,42.1,29.0,29.92,WNW,290,5.0,8.0,59,0.00,,,0.00,weatherlink.com 1.10,2013-10-25 05:55:00,
2013-10-25 02:10:00,41.4,28.0,29.93,NW,309,5.0,9.0,60,0.00,,,0.00,weatherlink.com 1.10,2013-10-25 06:10:00,
2013-10-25 02:25:00,41.1,29.0,29.93,WNW,282,5.0,10.0,62,0.00,,,0.00,weatherlink.com 1.10,2013-10-25 06:25:00,
2013-10-25 02:40:00,41.3,29.0,29.93,WNW,293,3.0,11.0,62,0.00,,,0.00,weatherlink.com 1.10,2013-10-25 06:40:00,
2013-10-25 02:55:00,41.1,29.0,29.93,WNW,295,5.0,9.0,62,0.00,,,0.00,weatherlink.com 1.10,2013-10-25 06:55:00,
2013-10-25 03:10:00,41.1,29.0,29.93,WNW,290,5.0,12.0,62,0.00,,,0.00,weatherlink.com 1.10,2013-10-25 07:10:00,
2013-10-25 03:25:00,41.1,29.0,29.93,WNW,292,8.0,12.0,63,0.00,,,0.00,weatherlink.com 1.10,2013-10-25 07:25:00,
2013-10-25 03:40:00,40.8,29.0,29.93,NW,306,5.0,12.0,63,0.00,,,0.00,weatherlink.com 1.10,2013-10-25 07:40:00,
2013-10-25 03:55:00,40.4,29.0,29.93,WNW,295,6.0,10.0,64,0.00,,,0.00,weatherlink.com 1.10,2013-10-25 07:55:00,
2013-10-25 04:11:00,40.2,29.0,29.94,WNW,283,5.0,9.0,65,0.00,,,0.00,weatherlink.com 1.10,2013-10-25 08:11:00,
2013-10-25 04:26:00,40.0,29.0,29.94,WNW,283,6.0,9.0,66,0.00,,,0.00,weatherlink.com 1.10,2013-10-25 08:26:00,
2013-10-25 04:41:00,40.1,30.0,29.95,WNW,291,4.0,8.0,67,0.00,,,0.00,weatherlink.com 1.10,2013-10-25 08:41:00,
2013-10-25 04:56:00,40.0,30.0,29.96,WNW,296,5.0,9.0,67,0.00,,,0.00,weatherlink.com 1.10,2013-10-25 08:56:00,
2013-10-25 05:11:00,39.6,30.0,29.96,WNW,290,3.0,8.0,69,0.00,,,0.00,weatherlink.com 1.10,2013-10-25 09:11:00,
2013-10-25 05:26:00,39.5,30.0,29.97,WNW,291,4.0,7.0,70,0.00,,,0.00,weatherlink.com 1.10,2013-10-25 09:26:00,
2013-10-25 05:41:00,39.3,30.0,29.97,WNW,286,3.0,8.0,70,0.00,,,0.00,weatherlink.com 1.10,2013-10-25 09:41:00,
2013-10-25 05:56:00,39.2,31.0,29.98,WNW,286,4.0,7.0,71,0.00,,,0.00,weatherlink.com 1.10,2013-10-25 09:56:00,
2013-10-25 06:11:00,39.2,31.0,29.98,West,278,5.0,8.0,72,0.00,,,0.00,weatherlink.com 1.10,2013-10-25 10:11:00,
2013-10-25 06:26:00,38.6,31.0,29.98,WNW,284,2.0,12.0,73,0.00,,,0.00,weatherlink.com 1.10,2013-10-25 10:26:00,
2013-10-25 06:41:00,38.5,31.0,29.99,WNW,286,5.0,10.0,74,0.00,,,0.00,weatherlink.com 1.10,2013-10-25 10:41:00,
2013-10-25 06:56:00,38.7,31.0,30.00,WNW,284,3.0,9.0,75,0.00,,,0.00,weatherlink.com 1.10,2013-10-25 10:56:00,
2013-10-25 07:11:00,38.8,32.0,30.00,WNW,291,3.0,9.0,76,0.00,,,0.00,weatherlink.com 1.10,2013-10-25 11:11:00,
2013-10-25 07:26:00,39.2,33.0,30.01,NW,319,12.0,15.0,77,0.00,,,0.00,weatherlink.com 1.10,2013-10-25 11:26:00,
2013-10-25 07:41:00,39.2,33.0,30.01,NW,315,11.0,14.0,77,0.00,,,0.00,weatherlink.com 1.10,2013-10-25 11:41:00,
2013-10-25 07:56:00,39.4,33.0,30.02,WNW,293,7.0,15.0,77,0.00,,,0.00,weatherlink.com 1.10,2013-10-25 11:56:00,
2013-10-25 08:11:00,39.6,33.0,30.03,WNW,296,7.0,14.0,78,0.00,,,0.00,weatherlink.com 1.10,2013-10-25 12:11:00,
2013-10-25 08:26:00,40.4,34.0,30.03,NW,313,4.0,13.0,77,0.00,,,0.00,weatherlink.com 1.10,2013-10-25 12:26:00,
2013-10-25 08:41:00,41.2,34.0,30.03,NW,315,4.0,11.0,76,0.00,,,0.00,weatherlink.com 1.10,2013-10-25 12:41:00,
2013-10-25 08:56:00,41.4,34.0,30.03,NW,323,7.0,14.0,74,0.00,,,0.00,weatherlink.com 1.10,2013-10-25 12:56:00,
2013-10-25 09:11:00,41.9,34.0,30.03,NW,307,10.0,17.0,73,0.00,,,0.00,weatherlink.com 1.10,2013-10-25 13:11:00,
2013-10-25 09:26:00,42.6,34.0,30.04,NW,310,4.0,17.0,72,0.00,,,0.00,weatherlink.com 1.10,2013-10-25 13:26:00,
2013-10-25 09:41:00,43.6,34.0,30.03,NW,325,12.0,17.0,69,0.00,,,0.00,weatherlink.com 1.10,2013-10-25 13:41:00,
2013-10-25 09:56:00,44.4,34.0,30.03,WNW,292,6.0,12.0,66,0.00,,,0.00,weatherlink.com 1.10,2013-10-25 13:56:00,
2013-10-25 10:11:00,45.2,33.0,30.03,WNW,298,14.0,15.0,63,0.00,,,0.00,weatherlink.com 1.10,2013-10-25 14:11:00,
2013-10-25 10:26:00,45.6,33.0,30.03,NNW,348,8.0,15.0,62,0.00,,,0.00,weatherlink.com 1.10,2013-10-25 14:26:00,
2013-10-25 10:41:00,46.0,32.0,30.03,NNW,338,14.0,18.0,59,0.00,,,0.00,weatherlink.com 1.10,2013-10-25 14:41:00,
2013-10-25 10:56:00,46.4,33.0,30.03,North,349,12.0,15.0,59,0.00,,,0.00,weatherlink.com 1.10,2013-10-25 14:56:00,
2013-10-25 11:11:00,46.8,32.0,30.03,NW,305,9.0,14.0,56,0.00,,,0.00,weatherlink.com 1.10,2013-10-25 15:11:00,
2013-10-25 11:26:00,45.8,32.0,30.03,NW,321,6.0,18.0,58,0.00,,,0.00,weatherlink.com 1.10,2013-10-25 15:26:00,
2013-10-25 11:41:00,45.0,31.0,30.03,NW,307,18.0,19.0,59,0.00,,,0.00,weatherlink.com 1.10,2013-10-25 15:41:00,
2013-10-25 11:56:00,45.4,30.0,30.03,NW,308,4.0,16.0,56,0.00,,,0.00,weatherlink.com 1.10,2013-10-25 15:56:00,
2013-10-25 12:11:00,45.8,30.0,30.03,NW,323,17.0,19.0,54,0.00,,,0.00,weatherlink.com 1.10,2013-10-25 16:11:00,
2013-10-25 12:26:00,45.9,29.0,30.02,WNW,302,11.0,20.0,52,0.00,,,0.00,weatherlink.com 1.10,2013-10-25 16:26:00,
2013-10-25 12:42:00,47.3,30.0,30.01,NW,309,6.0,18.0,51,0.00,,,0.00,weatherlink.com 1.10,2013-10-25 16:42:00,
2013-10-25 12:57:00,46.9,28.0,30.01,WNW,300,13.0,18.0,49,0.00,,,0.00,weatherlink.com 1.10,2013-10-25 16:57:00,
2013-10-25 13:12:00,47.5,29.0,30.01,NE,53,0.0,19.0,49,0.00,,,0.00,weatherlink.com 1.10,2013-10-25 17:12:00,
2013-10-25 13:27:00,47.3,29.0,30.01,NW,325,3.0,20.0,50,0.00,,,0.00,weatherlink.com 1.10,2013-10-25 17:27:00,
2013-10-25 13:42:00,46.3,28.0,30.02,NNW,329,9.0,20.0,50,0.00,,,0.00,weatherlink.com 1.10,2013-10-25 17:42:00,
2013-10-25 13:57:00,46.7,29.0,30.02,WNW,296,6.0,19.0,50,0.00,,,0.00,weatherlink.com 1.10,2013-10-25 17:57:00,
2013-10-25 14:12:00,46.9,27.0,30.02,North,5,5.0,22.0,47,0.00,,,0.00,weatherlink.com 1.10,2013-10-25 18:12:00,
2013-10-25 14:27:00,48.1,27.0,30.02,NW,313,10.0,19.0,44,0.00,,,0.00,weatherlink.com 1.10,2013-10-25 18:27:00,
2013-10-25 14:42:00,48.0,27.0,30.02,WNW,302,11.0,25.0,44,0.00,,,0.00,weatherlink.com 1.10,2013-10-25 18:42:00,
2013-10-25 14:57:00,47.8,27.0,30.02,NNW,347,10.0,20.0,45,0.00,,,0.00,weatherlink.com 1.10,2013-10-25 18:57:00,
2013-10-25 15:12:00,47.7,27.0,30.02,NNW,343,13.0,20.0,44,0.00,,,0.00,weatherlink.com 1.10,2013-10-25 19:12:00,
2013-10-25 15:27:00,48.8,26.0,30.02,WSW,244,7.0,24.0,42,0.00,,,0.00,weatherlink.com 1.10,2013-10-25 19:27:00,
2013-10-25 15:42:00,48.6,27.0,30.03,North,355,5.0,20.0,43,0.00,,,0.00,weatherlink.com 1.10,2013-10-25 19:42:00,
2013-10-25 15:57:00,48.9,27.0,30.03,NNW,348,7.0,22.0,42,0.00,,,0.00,weatherlink.com 1.10,2013-10-25 19:57:00,
2013-10-25 16:12:00,49.3,27.0,30.03,WNW,290,8.0,17.0,42,0.00,,,0.00,weatherlink.com 1.10,2013-10-25 20:12:00,
2013-10-25 16:27:00,49.5,27.0,30.03,NW,321,9.0,19.0,42,0.00,,,0.00,weatherlink.com 1.10,2013-10-25 20:27:00,
2013-10-25 16:42:00,49.5,26.0,30.03,NW,315,5.0,20.0,41,0.00,,,0.00,weatherlink.com 1.10,2013-10-25 20:42:00,
2013-10-25 16:57:00,49.4,26.0,30.04,NW,315,11.0,19.0,41,0.00,,,0.00,weatherlink.com 1.10,2013-10-25 20:57:00,
2013-10-25 17:12:00,48.8,26.0,30.05,NNE,12,14.0,18.0,42,0.00,,,0.00,weatherlink.com 1.10,2013-10-25 21:12:00,
2013-10-25 17:27:00,48.7,27.0,30.05,NW,317,8.0,18.0,43,0.00,,,0.00,weatherlink.com 1.10,2013-10-25 21:27:00,
2013-10-25 17:42:00,48.1,26.0,30.05,NNW,334,7.0,19.0,43,0.00,,,0.00,weatherlink.com 1.10,2013-10-25 21:42:00,
2013-10-25 17:57:00,47.8,27.0,30.06,NNW,344,7.0,15.0,44,0.00,,,0.00,weatherlink.com 1.10,2013-10-25 21:57:00,
2013-10-25 18:12:00,47.6,27.0,30.06,NNW,344,5.0,13.0,45,0.00,,,0.00,weatherlink.com 1.10,2013-10-25 22:12:00,
2013-10-25 18:27:00,47.4,27.0,30.07,NNW,338,10.0,12.0,45,0.00,,,0.00,weatherlink.com 1.10,2013-10-25 22:27:00,
2013-10-25 18:42:00,47.2,27.0,30.08,NNW,337,9.0,16.0,45,0.00,,,0.00,weatherlink.com 1.10,2013-10-25 22:42:00,
2013-10-25 18:57:00,47.0,28.0,30.08,NNW,342,5.0,9.0,47,0.00,,,0.00,weatherlink.com 1.10,2013-10-25 22:57:00,
2013-10-25 19:12:00,46.8,28.0,30.09,NNW,336,12.0,16.0,48,0.00,,,0.00,weatherlink.com 1.10,2013-10-25 23:12:00,
2013-10-25 19:27:00,46.4,27.0,30.10,NW,304,13.0,16.0,47,0.00,,,0.00,weatherlink.com 1.10,2013-10-25 23:27:00,
2013-10-25 19:42:00,46.1,27.0,30.11,NW,325,10.0,19.0,47,0.00,,,0.00,weatherlink.com 1.10,2013-10-25 23:42:00,
2013-10-25 19:57:00,45.9,27.0,30.11,NNW,328,2.0,12.0,47,0.00,,,0.00,weatherlink.com 1.10,2013-10-25 23:57:00,
2013-10-25 20:12:00,45.6,27.0,30.12,NW,314,5.0,13.0,48,0.00,,,0.00,weatherlink.com 1.10,2013-10-26 00:12:00,
2013-10-25 20:27:00,45.3,26.0,30.12,NNW,347,10.0,17.0,48,0.00,,,0.00,weatherlink.com 1.10,2013-10-26 00:27:00,
2013-10-25 20:42:00,45.1,27.0,30.13,NW,318,9.0,14.0,49,0.00,,,0.00,weatherlink.com 1.10,2013-10-26 00:42:00,
2013-10-25 20:57:00,44.7,27.0,30.14,NW,312,6.0,13.0,50,0.00,,,0.00,weatherlink.com 1.10,2013-10-26 00:57:00,
2013-10-25 21:12:00,44.4,27.0,30.14,NNW,347,3.0,11.0,51,0.00,,,0.00,weatherlink.com 1.10,2013-10-26 01:12:00,
2013-10-25 21:27:00,44.2,27.0,30.14,NNW,341,7.0,10.0,51,0.00,,,0.00,weatherlink.com 1.10,2013-10-26 01:27:00,
2013-10-25 21:42:00,44.0,27.0,30.14,NW,304,1.0,7.0,52,0.00,,,0.00,weatherlink.com 1.10,2013-10-26 01:42:00,
2013-10-25 21:57:00,44.0,27.0,30.15,NW,320,3.0,8.0,52,0.00,,,0.00,weatherlink.com 1.10,2013-10-26 01:57:00,
2013-10-25 22:12:00,43.6,27.0,30.15,WNW,290,3.0,10.0,52,0.00,,,0.00,weatherlink.com 1.10,2013-10-26 02:12:00,
2013-10-25 22:28:00,43.0,27.0,30.16,WNW,294,4.0,9.0,54,0.00,,,0.00,weatherlink.com 1.10,2013-10-26 02:28:00,
2013-10-25 22:43:00,42.7,27.0,30.16,NW,315,7.0,11.0,55,0.00,,,0.00,weatherlink.com 1.10,2013-10-26 02:43:00,
2013-10-25 22:58:00,42.1,28.0,30.16,WNW,301,11.0,12.0,57,0.00,,,0.00,weatherlink.com 1.10,2013-10-26 02:58:00,
2013-10-25 23:13:00,42.0,28.0,30.16,WNW,301,9.0,12.0,57,0.00,,,0.00,weatherlink.com 1.10,2013-10-26 03:13:00,
2013-10-25 23:28:00,41.9,28.0,30.16,NW,305,3.0,9.0,58,0.00,,,0.00,weatherlink.com 1.10,2013-10-26 03:28:00,
2013-10-25 23:43:00,41.7,28.0,30.16,NW,304,5.0,7.0,59,0.00,,,0.00,weatherlink.com 1.10,2013-10-26 03:43:00,
2013-10-25 23:58:00,41.3,28.0,30.16,WNW,298,3.0,7.0,60,0.00,,,0.00,weatherlink.com 1.10,2013-10-26 03:58:00,